Time;durP1;ratioP1;P1;durP2;ratioP2;P2;SDS_P1;SDS_P2;PMS_P1;PMS_P2;Temp;Humidity;BMP_temperature;BMP_pressure;BME280_temperature;BME280_humidity;BME280_pressure;Samples;Min_cycle;Max_cycle;Signal;HPM_P1;HPM_P2
2022/08/20 04:02:35;;;;;;;2.63;1.80;;;18.90;99.90;;;;;;5011280;22;20050;-69
2022/08/20 04:05:01;;;;;;;2.33;2.10;;;18.90;99.90;;;;;;5013728;28;20035;-69
2022/08/20 04:07:26;;;;;;;2.28;1.80;;;18.90;99.90;;;;;;5014340;28;20038;-70
2022/08/20 04:09:54;;;;;;;2.75;1.98;;;18.90;99.90;;;;;;5013885;28;20037;-69
2022/08/20 04:12:21;;;;;;;2.15;1.90;;;18.90;99.90;;;;;;5013980;28;20040;-69
2022/08/20 04:14:47;;;;;;;3.35;2.00;;;18.90;99.90;;;;;;5013862;28;20034;-69
2022/08/20 04:17:15;;;;;;;3.90;2.03;;;18.90;99.90;;;;;;5039078;23;20054;-72
2022/08/20 04:19:40;;;;;;;2.30;2.10;;;18.90;99.90;;;;;;5017273;28;20117;-72
2022/08/20 04:22:06;;;;;;;2.72;1.80;;;19.00;99.90;;;;;;5015743;28;20042;-72
2022/08/20 04:24:33;;;;;;;2.95;2.25;;;19.00;99.90;;;;;;5015782;28;20062;-74
2022/08/20 04:27:01;;;;;;;2.35;1.88;;;19.00;99.90;;;;;;5017306;28;20491;-72
2022/08/20 04:29:28;;;;;;;4.00;2.30;;;19.00;99.90;;;;;;5017315;28;20030;-73
2022/08/20 04:31:54;;;;;;;2.65;2.03;;;19.00;99.90;;;;;;5017259;28;20116;-73
2022/08/20 04:34:20;;;;;;;2.63;2.38;;;19.00;99.90;;;;;;5017089;28;20026;-72
2022/08/20 04:36:46;;;;;;;2.75;1.90;;;19.10;99.90;;;;;;5016955;28;20053;-72
2022/08/20 04:39:16;;;;;;;3.58;2.50;;;19.00;99.90;;;;;;5017188;28;20054;-72
2022/08/20 04:41:42;;;;;;;2.28;1.95;;;19.00;99.90;;;;;;5016927;28;20124;-72
2022/08/20 04:44:09;;;;;;;2.60;2.10;;;19.00;99.90;;;;;;5017032;28;20500;-72
2022/08/20 04:46:36;;;;;;;3.65;2.03;;;18.90;99.90;;;;;;5016612;28;20034;-72
2022/08/20 04:49:03;;;;;;;2.55;2.08;;;18.90;99.90;;;;;;5016936;28;20054;-72
2022/08/20 04:51:29;;;;;;;4.63;2.28;;;18.90;99.90;;;;;;5016970;28;20030;-72
2022/08/20 04:53:56;;;;;;;3.63;2.28;;;18.90;99.90;;;;;;5016873;28;20041;-72
2022/08/20 04:56:24;;;;;;;3.55;1.98;;;18.90;99.90;;;;;;5016364;28;20042;-72
2022/08/20 04:58:52;;;;;;;2.72;2.25;;;18.90;99.90;;;;;;5016732;28;20429;-72
2022/08/20 05:01:17;;;;;;;3.63;2.40;;;18.90;99.90;;;;;;5015194;28;20066;-72
2022/08/20 05:03:55;;;;;;;3.13;1.90;;;18.90;99.90;;;;;;5016475;28;20132;-72
2022/08/20 05:06:27;;;;;;;4.20;2.17;;;19.00;99.90;;;;;;5016245;28;20586;-73
2022/08/20 05:08:54;;;;;;;2.90;2.50;;;19.00;99.90;;;;;;5016620;28;20089;-72
2022/08/20 05:11:20;;;;;;;2.50;2.20;;;19.10;99.90;;;;;;5016603;28;20041;-72
2022/08/20 05:13:46;;;;;;;3.17;2.42;;;19.10;99.90;;;;;;5014837;28;20034;-71
2022/08/20 05:16:13;;;;;;;3.33;2.40;;;19.20;99.90;;;;;;5015643;28;20070;-72
2022/08/20 05:18:39;;;;;;;3.25;2.40;;;19.30;99.90;;;;;;5016686;28;20823;-72
2022/08/20 05:21:05;;;;;;;3.58;2.40;;;19.40;99.90;;;;;;5016743;28;20034;-72
2022/08/20 05:23:36;;;;;;;3.53;2.40;;;19.40;99.90;;;;;;5014934;28;20064;-72
2022/08/20 05:26:06;;;;;;;2.78;2.55;;;19.50;99.90;;;;;;5015911;28;20473;-72
2022/08/20 05:28:32;;;;;;;3.42;2.53;;;19.50;99.90;;;;;;5015953;28;20100;-73
2022/08/20 05:31:02;;;;;;;3.03;2.40;;;19.60;99.90;;;;;;5016435;28;20045;-72
2022/08/20 05:33:28;;;;;;;3.85;2.65;;;19.70;99.90;;;;;;5016399;28;20070;-72
2022/08/20 05:35:55;;;;;;;3.05;2.60;;;19.70;99.90;;;;;;5015979;28;20041;-72
2022/08/20 05:38:25;;;;;;;2.55;2.22;;;19.80;99.90;;;;;;5016199;28;20547;-72
2022/08/20 05:40:51;;;;;;;3.00;2.55;;;19.80;99.90;;;;;;5015776;28;20121;-73
2022/08/20 05:43:17;;;;;;;2.75;2.50;;;19.90;99.90;;;;;;5016145;28;20073;-73
2022/08/20 05:45:43;;;;;;;5.75;2.40;;;19.90;99.90;;;;;;5015913;28;20027;-73
2022/08/20 05:48:15;;;;;;;3.70;2.75;;;19.90;99.90;;;;;;5014602;28;20045;-73
2022/08/20 05:50:44;;;;;;;3.90;2.75;;;19.90;99.90;;;;;;5014614;28;20061;-73
2022/08/20 05:53:10;;;;;;;5.20;3.10;;;19.80;99.90;;;;;;5015744;28;20547;-73
2022/08/20 05:55:37;;;;;;;4.32;2.78;;;19.70;99.90;;;;;;5015464;28;20048;-73
2022/08/20 05:58:06;;;;;;;4.93;3.25;;;19.70;99.90;;;;;;5015932;28;20088;-72
2022/08/20 06:00:32;;;;;;;3.85;3.10;;;19.70;99.90;;;;;;5015543;28;20034;-73
2022/08/20 06:05:43;;;;;;;4.82;2.85;;;19.60;99.90;;;;;;5015735;28;20034;-73
2022/08/20 06:08:10;;;;;;;3.33;2.70;;;19.60;99.90;;;;;;5015640;28;20034;-73
2022/08/20 06:10:38;;;;;;;3.60;3.13;;;19.60;99.90;;;;;;5015915;28;20026;-73
2022/08/20 06:13:04;;;;;;;2.85;2.35;;;19.60;99.90;;;;;;5015902;28;20041;-73
2022/08/20 06:15:31;;;;;;;4.35;2.60;;;19.60;99.90;;;;;;5013300;28;20037;-72
2022/08/20 06:17:57;;;;;;;4.35;2.90;;;19.70;99.90;;;;;;5015887;28;20064;-73
2022/08/20 06:20:23;;;;;;;3.25;2.65;;;19.80;99.90;;;;;;5015421;28;20073;-73
2022/08/20 06:22:49;;;;;;;3.15;2.85;;;19.90;99.90;;;;;;5014099;28;20136;-73
2022/08/20 06:25:14;;;;;;;2.90;2.55;;;20.00;99.90;;;;;;5013614;28;20431;-73
2022/08/20 06:27:41;;;;;;;4.38;2.70;;;20.20;99.90;;;;;;5015508;28;20492;-72
2022/08/20 06:30:10;;;;;;;6.20;2.85;;;20.40;99.90;;;;;;5015408;28;20123;-72
2022/08/20 06:32:35;;;;;;;2.58;2.38;;;20.60;99.90;;;;;;5015502;28;20034;-73
2022/08/20 06:35:04;;;;;;;3.67;2.47;;;20.80;99.90;;;;;;5014991;28;20067;-73
2022/08/20 06:37:35;;;;;;;3.83;2.88;;;20.90;99.90;;;;;;5015098;28;20113;-72
2022/08/20 06:40:07;;;;;;;3.25;2.65;;;20.90;99.90;;;;;;5014633;28;20057;-74
2022/08/20 06:42:33;;;;;;;2.40;2.20;;;21.00;99.90;;;;;;5013822;28;20096;-73
2022/08/20 06:44:59;;;;;;;3.08;2.53;;;21.10;99.90;;;;;;5015071;28;20064;-74
2022/08/20 06:47:25;;;;;;;2.75;2.50;;;21.10;99.90;;;;;;5014917;28;20042;-74
2022/08/20 06:49:50;;;;;;;3.08;2.50;;;21.20;99.90;;;;;;5015186;28;20027;-73
2022/08/20 06:52:16;;;;;;;4.32;2.60;;;21.30;99.90;;;;;;5015404;28;20037;-73
2022/08/20 06:54:43;;;;;;;3.85;2.58;;;21.40;99.90;;;;;;5014990;28;20038;-74
2022/08/20 06:57:09;;;;;;;2.88;2.30;;;21.50;99.90;;;;;;5014368;28;20532;-74
2022/08/20 06:59:35;;;;;;;3.88;2.67;;;21.60;99.90;;;;;;5015031;28;20117;-74
2022/08/20 07:02:01;;;;;;;2.78;2.47;;;21.60;99.90;;;;;;5015014;28;20488;-75
2022/08/20 07:04:26;;;;;;;3.85;2.60;;;21.70;99.90;;;;;;5012315;28;20085;-73
2022/08/20 07:06:53;;;;;;;3.95;2.53;;;21.60;99.90;;;;;;5013252;28;20114;-73
2022/08/20 07:09:19;;;;;;;7.38;3.15;;;21.50;99.90;;;;;;5014784;28;20482;-74
2022/08/20 07:11:45;;;;;;;13.02;4.72;;;21.30;99.90;;;;;;5014962;28;20101;-74
2022/08/20 07:14:11;;;;;;;6.18;4.07;;;20.90;99.90;;;;;;5029459;28;20085;-74
2022/08/20 07:16:36;;;;;;;5.85;4.20;;;20.50;99.90;;;;;;5014040;28;20101;-73
2022/08/20 07:19:02;;;;;;;5.22;3.83;;;20.30;99.90;;;;;;5015009;28;20042;-73
2022/08/20 07:21:29;;;;;;;5.10;3.90;;;20.10;99.90;;;;;;5014742;28;20531;-75
2022/08/20 07:23:55;;;;;;;4.25;3.85;;;20.10;99.90;;;;;;5014531;28;20039;-74
2022/08/20 07:26:21;;;;;;;5.35;3.80;;;20.10;99.90;;;;;;5014534;28;20034;-73
2022/08/20 07:28:47;;;;;;;6.70;4.82;;;20.00;99.90;;;;;;5014491;28;20030;-74
2022/08/20 07:33:57;;;;;;;8.57;3.97;;;20.20;99.90;;;;;;5014859;28;20121;-73
2022/08/20 07:36:24;;;;;;;5.72;4.53;;;20.20;99.90;;;;;;5014742;28;20149;-74
2022/08/20 07:38:51;;;;;;;5.30;4.35;;;20.20;99.90;;;;;;5014749;28;20034;-73
2022/08/20 07:41:18;;;;;;;6.85;5.00;;;20.20;99.90;;;;;;5014713;28;20053;-74
2022/08/20 07:43:46;;;;;;;10.05;4.97;;;20.30;99.90;;;;;;5014451;28;20102;-73
2022/08/20 07:46:15;;;;;;;6.80;5.43;;;20.40;99.90;;;;;;5014089;28;20027;-74
2022/08/20 07:48:45;;;;;;;7.10;5.20;;;20.60;99.90;;;;;;5014432;28;20039;-81
2022/08/20 07:51:15;;;;;;;7.00;5.00;;;20.90;99.90;;;;;;5016600;28;20026;-75
2022/08/20 07:53:41;;;;;;;5.50;4.53;;;21.00;99.90;;;;;;5017924;28;20041;-74
2022/08/20 07:56:10;;;;;;;7.30;5.18;;;21.20;99.90;;;;;;5018243;28;20037;-73
2022/08/20 07:58:40;;;;;;;6.18;4.18;;;21.40;99.90;;;;;;5016935;28;20038;-75
2022/08/20 08:01:06;;;;;;;6.78;4.53;;;21.70;99.90;;;;;;5017750;28;20034;-74
2022/08/20 08:03:32;;;;;;;5.47;4.82;;;21.80;99.90;;;;;;5017868;28;20042;-74
2022/08/20 08:06:02;;;;;;;5.47;4.50;;;21.90;99.90;;;;;;5017661;28;20034;-74
2022/08/20 08:08:28;;;;;;;6.53;5.03;;;21.80;99.90;;;;;;5017971;28;20031;-72
2022/08/20 08:10:57;;;;;;;5.43;4.10;;;21.80;99.90;;;;;;5018053;28;20081;-74
2022/08/20 08:13:26;;;;;;;6.30;4.38;;;21.90;99.90;;;;;;5017935;28;20169;-74
2022/08/20 08:15:56;;;;;;;4.60;4.07;;;22.00;99.90;;;;;;5015370;28;20030;-73
2022/08/20 08:18:28;;;;;;;4.97;4.15;;;22.20;99.90;;;;;;5016555;28;20092;-75
2022/08/20 08:20:54;;;;;;;7.28;3.88;;;22.20;99.90;;;;;;5018051;28;20106;-74
2022/08/20 08:23:21;;;;;;;7.13;4.05;;;22.30;99.90;;;;;;5017355;28;20563;-74
2022/08/20 08:25:50;;;;;;;5.55;3.78;;;22.30;99.90;;;;;;5015522;28;20519;-74
2022/08/20 08:28:17;;;;;;;5.53;4.18;;;22.40;99.90;;;;;;5017389;28;20041;-79
2022/08/20 08:30:45;;;;;;;6.00;4.00;;;22.60;99.90;;;;;;5016822;28;20030;-74
2022/08/20 08:33:26;;;;;;;5.47;4.32;;;23.00;99.90;;;;;;5017675;28;20069;-79
2022/08/20 08:35:53;;;;;;;5.18;3.78;;;23.30;99.90;;;;;;5016803;28;20030;-74
2022/08/20 08:38:21;;;;;;;5.55;3.80;;;23.40;99.90;;;;;;5017123;28;20035;-73
2022/08/20 08:40:47;;;;;;;4.90;3.67;;;23.40;99.90;;;;;;5015868;28;20419;-74
2022/08/20 08:43:13;;;;;;;5.65;3.83;;;22.90;99.90;;;;;;5017298;28;20043;-75
2022/08/20 08:45:47;;;;;;;5.40;3.72;;;22.70;99.90;;;;;;5016859;28;20030;-72
2022/08/20 08:48:15;;;;;;;5.15;3.70;;;22.50;99.90;;;;;;5017019;28;20049;-72
2022/08/20 08:50:44;;;;;;;4.60;3.95;;;22.30;99.90;;;;;;5032268;28;20041;-70
2022/08/20 08:53:20;;;;;;;7.10;3.90;;;22.10;99.90;;;;;;5017626;28;20154;-74
2022/08/20 08:55:46;;;;;;;4.20;3.58;;;22.10;99.90;;;;;;5016073;28;20034;-72
2022/08/20 08:58:12;;;;;;;5.35;3.50;;;21.90;99.90;;;;;;5016797;28;20042;-73
2022/08/20 09:00:38;;;;;;;5.13;3.78;;;21.80;99.90;;;;;;5017162;28;20030;-73
2022/08/20 09:03:14;;;;;;;5.47;3.83;;;21.50;99.90;;;;;;5015798;28;20392;-74
2022/08/20 09:05:48;;;;;;;4.25;3.60;;;21.50;99.90;;;;;;5015960;28;20026;-73
2022/08/20 09:08:18;;;;;;;6.40;3.58;;;21.80;99.90;;;;;;5017066;28;20097;-74
2022/08/20 09:10:44;;;;;;;5.18;4.05;;;22.30;99.90;;;;;;5016764;28;20058;-73
2022/08/20 09:13:11;;;;;;;4.30;3.72;;;22.70;99.90;;;;;;5014897;28;20817;-73
2022/08/20 09:15:36;;;;;;;6.95;3.55;;;22.90;99.90;;;;;;5015545;28;20038;-72
2022/08/20 09:18:02;;;;;;;3.42;3.13;;;23.10;99.90;;;;;;5014310;28;20038;-73
2022/08/20 09:20:28;;;;;;;4.03;2.60;;;23.10;99.90;;;;;;5015598;28;20484;-73
2022/08/20 09:22:54;;;;;;;3.35;3.05;;;23.40;99.90;;;;;;5016023;28;20042;-72
2022/08/20 09:25:20;;;;;;;6.20;3.00;;;23.70;99.90;;;;;;5015696;28;20040;-72
2022/08/20 09:27:46;;;;;;;5.50;3.53;;;24.10;99.90;;;;;;5015509;28;20041;-72
2022/08/20 09:30:13;;;;;;;3.28;2.70;;;24.00;99.90;;;;;;5016303;28;20041;-72
2022/08/20 09:32:40;;;;;;;4.75;3.00;;;23.90;99.90;;;;;;5015622;28;20048;-72
2022/08/20 09:35:05;;;;;;;3.65;3.20;;;23.90;99.90;;;;;;5015588;28;20038;-72
2022/08/20 09:37:32;;;;;;;3.13;2.80;;;23.70;99.90;;;;;;5016152;28;20037;-72
2022/08/20 09:39:58;;;;;;;3.50;3.20;;;23.60;99.90;;;;;;5015731;28;20030;-73
2022/08/20 09:42:30;;;;;;;6.35;3.40;;;23.80;99.90;;;;;;5015752;28;20048;-73
2022/08/20 09:44:57;;;;;;;3.95;3.08;;;24.20;99.90;;;;;;5014699;28;20031;-72
2022/08/20 09:47:22;;;;;;;3.50;2.97;;;24.80;99.90;;;;;;5016071;28;20085;-72
2022/08/20 09:49:48;;;;;;;3.47;3.13;;;25.30;99.90;;;;;;5016382;28;20788;-73
2022/08/20 09:52:22;;;;;;;3.80;3.40;;;25.30;99.90;;;;;;5016434;28;20038;-73
2022/08/20 09:54:49;;;;;;;4.15;3.28;;;25.10;99.90;;;;;;5016546;28;20577;-72
2022/08/20 09:57:15;;;;;;;3.53;3.13;;;25.00;99.90;;;;;;5015257;28;20034;-72
2022/08/20 09:59:41;;;;;;;5.32;3.40;;;25.00;99.90;;;;;;5031425;28;20030;-71
2022/08/20 10:02:07;;;;;;;4.68;3.40;;;24.80;99.90;;;;;;5016017;28;20043;-72
2022/08/20 10:04:32;;;;;;;6.25;4.75;;;24.80;99.90;;;;;;5015893;28;20030;-72
2022/08/20 10:06:58;;;;;;;4.93;4.53;;;24.60;99.90;;;;;;5015755;28;20037;-72
2022/08/20 10:09:23;;;;;;;6.47;5.20;;;24.30;99.90;;;;;;5015588;28;20037;-72
2022/08/20 10:11:49;;;;;;;5.38;4.60;;;24.20;99.90;;;;;;5015768;28;20039;-72
2022/08/20 10:14:14;;;;;;;5.72;3.92;;;24.20;99.90;;;;;;5015428;28;20081;-72
2022/08/20 10:16:40;;;;;;;4.78;3.40;;;24.20;99.90;;;;;;5054900;22;20111;-70
2022/08/20 10:19:06;;;;;;;3.60;3.30;;;24.20;99.90;;;;;;5055343;28;20046;-70
2022/08/20 10:21:32;;;;;;;3.35;3.00;;;24.60;99.90;;;;;;5055346;28;20065;-73
2022/08/20 10:23:58;;;;;;;3.25;2.95;;;24.90;99.90;;;;;;5054493;28;20029;-74
2022/08/20 10:26:24;;;;;;;3.20;2.90;;;25.10;99.90;;;;;;5047435;28;20030;-73
2022/08/20 10:28:50;;;;;;;2.78;2.25;;;25.10;99.90;;;;;;5035446;28;20026;-73
2022/08/20 10:31:15;;;;;;;3.20;2.67;;;25.60;99.90;;;;;;5033827;28;20038;-73
2022/08/20 10:33:41;;;;;;;3.15;2.78;;;25.70;99.90;;;;;;5035332;28;20479;-73
2022/08/20 10:36:09;;;;;;;3.40;3.10;;;25.70;99.90;;;;;;5034376;28;20034;-73
2022/08/20 10:38:34;;;;;;;3.45;3.15;;;25.70;99.90;;;;;;5034402;28;20038;-79
2022/08/20 10:41:00;;;;;;;3.45;2.88;;;26.00;99.90;;;;;;5035412;28;20030;-76
2022/08/20 10:43:26;;;;;;;5.20;3.08;;;26.40;99.90;;;;;;5035406;28;20080;-73
2022/08/20 10:45:52;;;;;;;3.03;2.75;;;26.50;99.90;;;;;;5034829;28;20029;-77
2022/08/20 10:48:18;;;;;;;4.93;2.50;;;26.50;99.90;;;;;;5033863;28;20062;-73
2022/08/20 10:50:43;;;;;;;4.10;2.70;;;26.60;99.90;;;;;;5034995;28;20044;-73
2022/08/20 10:53:09;;;;;;;3.45;2.80;;;27.20;99.90;;;;;;5034691;28;20034;-73
2022/08/20 10:55:34;;;;;;;3.15;2.60;;;27.40;99.90;;;;;;5034541;28;20454;-72
2022/08/20 10:58:03;;;;;;;2.88;2.45;;;27.10;99.90;;;;;;5035130;28;20041;-76
2022/08/20 11:00:28;;;;;;;4.32;2.42;;;26.70;99.90;;;;;;5033877;28;20801;-73
2022/08/20 11:02:54;;;;;;;4.07;2.72;;;26.40;99.90;;;;;;5034689;28;20060;-77
2022/08/20 11:05:19;;;;;;;4.57;2.53;;;26.60;99.90;;;;;;5033232;28;20030;-73
2022/08/20 11:07:45;;;;;;;3.75;2.45;;;26.30;99.90;;;;;;5034873;28;20068;-72
2022/08/20 11:10:11;;;;;;;4.00;2.83;;;26.40;99.90;;;;;;5033455;28;20376;-76
2022/08/20 11:12:37;;;;;;;4.32;3.05;;;26.00;99.90;;;;;;5033937;28;20036;-74
2022/08/20 11:15:03;;;;;;;3.47;2.95;;;25.80;99.90;;;;;;5035008;28;20379;-75
2022/08/20 11:17:32;;;;;;;4.28;2.53;;;26.00;99.90;;;;;;5034406;28;20038;-77
2022/08/20 11:19:59;;;;;;;2.85;2.20;;;26.30;99.90;;;;;;5034477;28;20048;-76
2022/08/20 11:22:25;;;;;;;4.57;2.10;;;26.80;99.90;;;;;;5034184;28;20049;-77
2022/08/20 11:24:52;;;;;;;2.17;1.90;;;27.20;99.90;;;;;;5032372;28;20121;-75
2022/08/20 11:27:34;;;;;;;3.65;1.90;;;27.20;99.90;;;;;;5034152;28;20034;-76
2022/08/20 11:30:01;;;;;;;5.28;2.10;;;27.20;99.70;;;;;;5034248;28;20038;-78
2022/08/20 11:32:27;;;;;;;2.50;2.10;;;27.20;99.90;;;;;;5032841;28;20085;-76
2022/08/20 11:34:52;;;;;;;3.00;2.10;;;26.80;99.90;;;;;;5034396;28;20080;-77
2022/08/20 11:37:20;;;;;;;3.00;1.88;;;26.60;99.90;;;;;;5034603;28;20037;-77
2022/08/20 11:39:46;;;;;;;2.28;2.08;;;26.10;99.90;;;;;;5032712;28;20038;-75
2022/08/20 11:42:12;;;;;;;3.53;2.30;;;26.20;99.90;;;;;;5034112;28;20037;-73
2022/08/20 11:44:37;;;;;;;3.78;2.10;;;26.50;99.90;;;;;;5034540;28;20029;-75
2022/08/20 11:47:05;;;;;;;2.65;2.40;;;26.30;99.90;;;;;;5033992;28;20474;-76
2022/08/20 11:49:35;;;;;;;3.63;2.15;;;26.40;99.90;;;;;;5033036;28;20065;-76
2022/08/20 11:52:01;;;;;;;3.65;2.33;;;26.70;99.90;;;;;;5033797;28;20085;-75
2022/08/20 11:54:27;;;;;;;3.45;2.20;;;26.70;99.90;;;;;;5032268;28;20026;-73
2022/08/20 11:56:56;;;;;;;2.85;1.90;;;27.20;99.90;;;;;;5034311;28;20069;-73
2022/08/20 11:59:22;;;;;;;2.28;2.08;;;27.20;99.00;;;;;;5034735;28;20026;-81
2022/08/20 12:01:48;;;;;;;2.10;1.75;;;27.00;98.90;;;;;;5033017;28;20040;-80
2022/08/20 12:04:14;;;;;;;3.00;2.25;;;27.10;98.50;;;;;;5034669;28;20068;-72
2022/08/20 12:06:39;;;;;;;3.22;2.25;;;27.10;99.10;;;;;;5034500;28;20026;-72
2022/08/20 12:09:05;;;;;;;2.25;2.08;;;27.60;98.20;;;;;;5033995;28;20583;-73
2022/08/20 12:11:30;;;;;;;2.28;1.50;;;28.00;97.00;;;;;;5032642;28;20033;-73
2022/08/20 12:13:56;;;;;;;1.38;1.27;;;27.40;96.20;;;;;;5033899;28;20029;-72
2022/08/20 12:16:21;;;;;;;2.70;1.80;;;27.00;96.30;;;;;;5033752;28;20092;-72
2022/08/20 12:18:47;;;;;;;2.53;1.80;;;26.60;98.40;;;;;;5033827;28;20030;-72
2022/08/20 12:21:13;;;;;;;2.75;1.80;;;26.60;98.00;;;;;;5033966;28;20113;-79
2022/08/20 12:23:39;;;;;;;2.53;1.58;;;26.60;98.30;;;;;;5033932;28;20038;-73
2022/08/20 12:26:05;;;;;;;3.05;1.80;;;26.60;97.60;;;;;;5031910;28;20037;-73
2022/08/20 12:28:31;;;;;;;3.13;2.20;;;26.60;97.60;;;;;;5033979;28;20042;-73
2022/08/20 12:30:57;;;;;;;2.67;1.80;;;26.80;97.50;;;;;;5032273;28;20026;-73
2022/08/20 12:33:23;;;;;;;2.30;1.33;;;26.90;98.00;;;;;;5033731;28;20555;-73
2022/08/20 12:35:49;;;;;;;1.63;1.40;;;26.50;98.40;;;;;;5033729;28;20034;-73
2022/08/20 12:38:15;;;;;;;3.72;1.63;;;26.50;99.00;;;;;;5033703;28;20960;-73
2022/08/20 12:40:41;;;;;;;2.35;1.60;;;26.60;99.30;;;;;;5035665;28;20376;-73
2022/08/20 12:43:07;;;;;;;2.80;1.65;;;26.60;99.20;;;;;;5036989;28;20060;-73
2022/08/20 12:45:33;;;;;;;4.05;1.73;;;26.40;99.30;;;;;;5035332;28;20541;-73
2022/08/20 12:48:03;;;;;;;4.10;1.90;;;26.30;99.90;;;;;;5036918;28;20041;-73
2022/08/20 12:50:29;;;;;;;5.32;1.88;;;26.40;99.70;;;;;;5036854;28;20053;-73
2022/08/20 12:52:54;;;;;;;3.30;1.65;;;26.70;99.90;;;;;;5036902;28;20160;-73
2022/08/20 12:55:20;;;;;;;2.78;1.67;;;27.20;99.20;;;;;;5036938;28;20570;-75
2022/08/20 12:57:49;;;;;;;3.80;1.60;;;27.40;98.90;;;;;;5036979;28;20112;-73
2022/08/20 13:00:14;;;;;;;2.97;1.70;;;27.60;98.60;;;;;;5036813;28;20526;-73
2022/08/20 13:02:40;;;;;;;2.60;1.67;;;27.80;97.90;;;;;;5036782;28;20042;-73
2022/08/20 13:05:08;;;;;;;3.05;1.88;;;28.10;97.10;;;;;;5036670;28;20030;-73
2022/08/20 13:07:34;;;;;;;4.95;1.90;;;28.30;96.80;;;;;;5036546;28;20030;-74
2022/08/20 13:10:00;;;;;;;2.03;1.80;;;28.40;96.60;;;;;;5036673;28;20057;-72
2022/08/20 13:12:26;;;;;;;4.22;3.25;;;27.80;96.90;;;;;;5036609;28;20038;-73
2022/08/20 13:14:52;;;;;;;3.40;2.40;;;27.70;96.90;;;;;;5036493;28;20518;-74
2022/08/20 13:17:18;;;;;;;2.00;1.70;;;27.70;97.10;;;;;;5034638;28;20079;-74
2022/08/20 13:19:44;;;;;;;3.10;1.83;;;27.50;96.50;;;;;;5036576;28;20030;-74
2022/08/20 13:22:11;;;;;;;2.92;1.90;;;27.20;97.50;;;;;;5036437;28;20034;-74
2022/08/20 13:24:37;;;;;;;1.58;1.48;;;26.80;98.00;;;;;;5036741;28;20403;-78
2022/08/20 13:27:12;;;;;;;3.30;1.75;;;26.50;98.40;;;;;;5034877;28;20056;-73
2022/08/20 13:29:44;;;;;;;2.22;1.98;;;26.20;99.10;;;;;;5036725;28;20044;-75
2022/08/20 13:32:09;;;;;;;4.60;1.50;;;26.10;99.50;;;;;;5035480;28;20025;-75
2022/08/20 13:34:35;;;;;;;1.40;1.30;;;25.70;99.70;;;;;;5034782;28;20041;-74
2022/08/20 13:37:00;;;;;;;1.50;1.40;;;25.20;99.90;;;;;;5035991;28;20034;-74
2022/08/20 13:39:26;;;;;;;1.75;1.55;;;25.00;99.90;;;;;;5036570;28;20033;-75
2022/08/20 13:41:51;;;;;;;2.13;1.77;;;25.20;99.90;;;;;;5035952;28;20026;-74
2022/08/20 13:44:17;;;;;;;4.28;1.80;;;25.20;99.90;;;;;;5036048;28;20044;-74
2022/08/20 13:46:42;;;;;;;3.13;1.73;;;25.10;99.90;;;;;;5035953;28;20042;-74
2022/08/20 13:49:08;;;;;;;3.25;1.20;;;25.30;99.90;;;;;;5035593;28;20511;-74
2022/08/20 13:51:33;;;;;;;3.15;1.50;;;25.30;99.90;;;;;;5035787;28;20044;-74
2022/08/20 13:53:59;;;;;;;5.13;2.03;;;25.10;99.90;;;;;;5035701;28;20030;-74
2022/08/20 13:56:24;;;;;;;4.95;1.90;;;25.00;99.90;;;;;;5035554;28;20492;-74
2022/08/20 13:58:50;;;;;;;11.05;5.15;;;25.20;99.90;;;;;;5036121;28;20061;-74
2022/08/20 14:01:15;;;;;;;5.30;2.08;;;25.10;99.90;;;;;;5035880;28;20060;-74
2022/08/20 14:03:41;;;;;;;36.08;3.13;;;25.30;99.90;;;;;;5036286;28;20525;-78
2022/08/20 14:06:08;;;;;;;15.50;2.35;;;25.20;99.90;;;;;;5035884;28;20459;-73
2022/08/20 14:08:34;;;;;;;3.00;1.50;;;25.20;99.90;;;;;;5035687;28;20034;-74
2022/08/20 14:11:00;;;;;;;2.03;1.83;;;25.30;99.90;;;;;;5035986;28;20117;-81
2022/08/20 14:13:26;;;;;;;3.58;1.65;;;25.10;99.90;;;;;;5034809;28;20477;-74
2022/08/20 14:15:52;;;;;;;4.07;1.60;;;25.40;99.90;;;;;;5034381;28;20041;-75
2022/08/20 14:18:18;;;;;;;1.80;1.60;;;25.70;99.90;;;;;;5035993;28;20495;-75
2022/08/20 14:20:44;;;;;;;3.45;1.75;;;25.90;99.90;;;;;;5036541;28;20041;-75
2022/08/20 14:23:10;;;;;;;1.73;1.60;;;27.10;99.10;;;;;;5036800;28;20034;-77
2022/08/20 14:25:36;;;;;;;2.28;1.38;;;28.60;96.90;;;;;;5035261;28;20038;-74
2022/08/20 14:28:22;;;;;;;1.33;1.23;;;29.30;95.20;;;;;;5035732;28;20507;-77
2022/08/20 14:30:49;;;;;;;2.65;1.40;;;29.90;94.20;;;;;;5035741;28;20026;-74
2022/08/20 14:33:14;;;;;;;2.00;1.50;;;29.80;94.10;;;;;;5035514;28;20030;-75
2022/08/20 14:35:41;;;;;;;1.90;1.73;;;29.20;93.30;;;;;;5034622;28;20038;-74
2022/08/20 14:38:07;;;;;;;4.28;1.38;;;28.60;94.80;;;;;;5035134;28;20038;-74
2022/08/20 14:40:34;;;;;;;2.38;1.23;;;28.10;94.30;;;;;;5035242;28;20041;-74
2022/08/20 14:43:00;;;;;;;147.75;10.75;;;27.60;94.40;;;;;;5033450;28;20538;-74
2022/08/20 14:45:25;;;;;;;29.92;3.65;;;27.10;96.30;;;;;;5034836;28;20068;-80
2022/08/20 14:47:55;;;;;;;35.55;4.70;;;26.70;96.50;;;;;;5034754;28;20692;-74
2022/08/20 14:50:31;;;;;;;55.03;42.90;;;26.30;96.50;;;;;;5035331;28;20025;-73
2022/08/20 14:52:57;;;;;;;13.45;11.38;;;26.10;98.50;;;;;;5035197;28;20034;-74
2022/08/20 14:55:26;;;;;;;6.88;2.95;;;25.90;98.20;;;;;;5034811;28;20038;-74
2022/08/20 14:57:53;;;;;;;20.77;17.05;;;26.00;99.30;;;;;;5034673;28;20575;-74
2022/08/20 15:00:23;;;;;;;14.48;12.48;;;26.00;98.70;;;;;;5033533;28;20061;-73
2022/08/20 15:02:49;;;;;;;6.43;3.65;;;26.10;99.70;;;;;;5033377;28;20385;-73
2022/08/20 15:05:15;;;;;;;10.10;7.47;;;26.10;99.20;;;;;;5034531;28;20038;-73
2022/08/20 15:07:44;;;;;;;171.88;145.65;;;26.10;98.30;;;;;;5034597;28;20029;-73
2022/08/20 15:10:14;;;;;;;67.00;59.83;;;25.90;98.20;;;;;;5034564;28;20049;-73
2022/08/20 15:12:40;;;;;;;78.45;66.28;;;25.90;98.30;;;;;;5034527;28;20508;-74
2022/08/20 15:15:08;;;;;;;41.58;35.20;;;25.80;98.50;;;;;;5034553;28;20053;-74
2022/08/20 15:17:34;;;;;;;61.38;52.33;;;26.00;98.20;;;;;;5034080;28;20061;-73
2022/08/20 15:20:10;;;;;;;25.35;22.08;;;26.00;98.10;;;;;;5033083;28;20033;-75
2022/08/20 15:22:39;;;;;;;27.27;22.60;;;27.00;97.00;;;;;;5032907;28;20157;-74
2022/08/20 15:25:11;;;;;;;51.35;45.28;;;28.30;95.90;;;;;;5034160;28;20121;-74
2022/08/20 15:27:37;;;;;;;15.27;13.02;;;30.10;94.40;;;;;;5034338;28;20034;-74
2022/08/20 15:30:12;;;;;;;6.13;5.30;;;32.10;88.90;;;;;;5033028;28;20033;-75
2022/08/20 15:32:38;;;;;;;1.42;1.33;;;35.00;83.80;;;;;;5033039;28;20492;-75
2022/08/20 15:35:06;;;;;;;1.80;1.40;;;36.30;75.30;;;;;;5034817;28;20033;-75
2022/08/20 15:37:32;;;;;;;2.35;1.02;;;34.60;76.20;;;;;;5032818;28;20411;-75
2022/08/20 15:40:02;;;;;;;1.80;1.50;;;34.30;78.40;;;;;;5032690;28;20030;-75
2022/08/20 15:42:28;;;;;;;1.20;1.10;;;34.80;74.90;;;;;;5033770;28;20681;-75
2022/08/20 15:44:53;;;;;;;1.25;1.08;;;35.10;71.70;;;;;;5034142;28;20125;-75
2022/08/20 15:47:19;;;;;;;3.42;1.20;;;35.80;70.30;;;;;;5034665;28;20061;-81
2022/08/20 15:49:45;;;;;;;1.55;1.10;;;35.90;67.70;;;;;;5034591;28;20484;-80
2022/08/20 15:52:12;;;;;;;2.25;1.42;;;34.60;69.90;;;;;;5034532;28;20529;-80
2022/08/20 15:54:39;;;;;;;1.83;1.20;;;36.20;66.70;;;;;;5037295;28;20061;-82
2022/08/20 15:57:24;;;;;;;1.95;1.23;;;36.90;61.80;;;;;;5040209;28;20034;-83
2022/08/20 15:59:50;;;;;;;1.17;1.08;;;37.40;58.00;;;;;;5036342;28;20061;-74
2022/08/20 16:02:36;;;;;;;1.20;1.10;;;38.80;55.40;;;;;;5036208;28;20034;-77
2022/08/20 16:05:31;;;;;;;1.20;1.10;;;39.30;53.10;;;;;;5033447;28;20046;-80
2022/08/20 16:08:15;;;;;;;1.20;1.10;;;39.20;52.90;;;;;;5022059;28;20776;-79
2022/08/20 16:11:19;;;;;;;2.33;1.40;;;36.90;53.20;;;;;;5016208;28;20458;-80
2022/08/20 16:13:47;;;;;;;1.70;1.35;;;36.00;50.40;;;;;;5021503;28;20034;-75
2022/08/20 16:16:31;;;;;;;1.50;1.40;;;34.00;53.60;;;;;;5020660;28;20101;-81
2022/08/20 16:18:57;;;;;;;2.72;1.80;;;34.90;55.00;;;;;;5046048;23;20101;-78
2022/08/20 16:21:39;;;;;;;1.40;1.23;;;35.60;53.20;;;;;;5017000;28;20049;-73
2022/08/20 16:24:11;;;;;;;1.65;1.40;;;35.70;53.70;;;;;;5009067;28;20038;-74
2022/08/20 16:26:56;;;;;;;2.17;1.40;;;37.60;48.70;;;;;;5017253;28;20515;-77
2022/08/20 16:29:49;;;;;;;2.55;1.30;;;37.90;49.00;;;;;;5017657;28;20041;-74
2022/08/20 16:32:30;;;;;;;1.90;1.38;;;37.40;47.80;;;;;;5017707;28;20026;-74
2022/08/20 16:35:23;;;;;;;2.08;1.30;;;37.20;47.30;;;;;;5017435;28;20518;-74
2022/08/20 16:38:05;;;;;;;2.30;1.45;;;37.80;47.20;;;;;;5016904;28;20042;-74
2022/08/20 16:40:32;;;;;;;1.58;1.25;;;38.20;46.40;;;;;;5017593;28;20038;-74
2022/08/20 16:43:02;;;;;;;1.40;1.30;;;38.40;45.80;;;;;;5032086;28;20093;-73
2022/08/20 16:45:37;;;;;;;1.33;1.23;;;37.60;46.20;;;;;;5016353;28;20030;-73
2022/08/20 16:48:05;;;;;;;3.20;1.30;;;36.80;50.90;;;;;;5017211;28;20042;-74
2022/08/20 16:50:53;;;;;;;1.90;1.33;;;36.30;55.90;;;;;;5017159;28;20057;-73
2022/08/20 16:53:21;;;;;;;1.60;1.10;;;36.80;51.50;;;;;;5017480;28;20507;-75
2022/08/20 16:55:47;;;;;;;1.42;1.33;;;37.70;47.40;;;;;;5032080;28;20037;-76